Time;durP1;ratioP1;P1;durP2;ratioP2;P2;SDS_P1;SDS_P2;PMS_P1;PMS_P2;Temp;Humidity;BMP_temperature;BMP_pressure;BME280_temperature;BME280_humidity;BME280_pressure;Samples;Min_cycle;Max_cycle;Signal;HPM_P1;HPM_P2
2023/08/16 00:00:39;;;;;;;;;;;16.90;74.60;;;;;;5049679;28;19913;-83
2023/08/16 00:03:05;;;;;;;;;;;16.90;74.60;;;;;;5057649;28;19913;-83
2023/08/16 00:05:32;;;;;;;;;;;16.80;74.70;;;;;;5062791;28;19920;-83
2023/08/16 00:07:57;;;;;;;;;;;16.80;74.60;;;;;;5066552;28;20280;-83
2023/08/16 00:10:23;;;;;;;;;;;16.80;75.00;;;;;;5052642;28;19912;-84
2023/08/16 00:12:48;;;;;;;;;;;16.70;74.40;;;;;;5069789;28;20382;-83
2023/08/16 00:15:14;;;;;;;;;;;16.70;74.50;;;;;;5069806;28;19917;-83
2023/08/16 00:17:39;;;;;;;;;;;16.60;74.40;;;;;;5071119;28;19924;-82
2023/08/16 00:20:08;;;;;;;;;;;16.60;74.50;;;;;;5069654;28;19951;-83
2023/08/16 00:22:34;;;;;;;;;;;16.50;74.50;;;;;;5069627;28;20418;-83
2023/08/16 00:24:59;;;;;;;;;;;16.50;74.50;;;;;;5069493;28;19915;-84
2023/08/16 00:27:25;;;;;;;;;;;16.50;74.70;;;;;;5069519;28;20375;-83
2023/08/16 00:29:50;;;;;;;;;;;16.40;74.60;;;;;;5070799;28;19912;-83
2023/08/16 00:32:16;;;;;;;;;;;16.40;74.70;;;;;;5052963;28;19916;-83
2023/08/16 00:34:41;;;;;;;;;;;16.40;74.60;;;;;;5052800;28;19917;-83
2023/08/16 00:37:07;;;;;;;;;;;16.40;74.60;;;;;;5069211;28;20288;-84
2023/08/16 00:39:33;;;;;;;;;;;16.40;74.50;;;;;;5069402;28;19954;-83
2023/08/16 00:41:58;;;;;;;;;;;16.40;74.40;;;;;;5052508;28;19912;-84
2023/08/16 00:44:24;;;;;;;;;;;16.30;74.40;;;;;;5052660;28;19912;-83
2023/08/16 00:46:50;;;;;;;;;;;16.20;74.40;;;;;;5069155;28;19912;-82
2023/08/16 00:49:16;;;;;;;;;;;16.20;74.60;;;;;;5052533;28;19913;-83
2023/08/16 00:51:42;;;;;;;;;;;16.20;74.60;;;;;;5070440;28;19912;-83
2023/08/16 00:54:08;;;;;;;;;;;16.10;74.60;;;;;;5068900;28;19995;-83
2023/08/16 00:56:34;;;;;;;;;;;16.10;74.70;;;;;;5069055;28;20027;-83
2023/08/16 00:59:00;;;;;;;;;;;16.10;74.80;;;;;;5068959;28;19912;-83
2023/08/16 01:01:26;;;;;;;;;;;16.10;74.80;;;;;;5069050;28;19913;-83
2023/08/16 01:03:51;;;;;;;;;;;16.10;74.80;;;;;;5068884;28;19944;-84
2023/08/16 01:06:17;;;;;;;;;;;16.10;74.70;;;;;;5051918;28;19970;-83
2023/08/16 01:08:42;;;;;;;;;;;16.10;74.60;;;;;;5052220;28;19913;-83
2023/08/16 01:11:28;;;;;;;;;;;16.10;74.60;;;;;;5068816;28;20398;-84
2023/08/16 01:13:58;;;;;;;;;;;16.20;74.60;;;;;;5070379;28;19912;-83
2023/08/16 01:16:25;;;;;;;;;;;16.20;74.60;;;;;;5068688;28;20277;-83
2023/08/16 01:18:52;;;;;;;;;;;16.20;74.60;;;;;;5069904;28;19922;-83
2023/08/16 01:21:19;;;;;;;;;;;16.10;74.50;;;;;;5067869;28;20029;-83
2023/08/16 01:23:57;;;;;;;;;;;16.00;74.60;;;;;;5068577;28;19915;-83
2023/08/16 01:26:25;;;;;;;;;;;15.90;75.10;;;;;;5068634;28;19923;-83
2023/08/16 01:28:51;;;;;;;;;;;15.90;74.50;;;;;;5069687;28;19908;-83
2023/08/16 01:31:17;;;;;;;;;;;15.90;74.50;;;;;;5068344;28;20003;-83
2023/08/16 01:33:43;;;;;;;;;;;15.80;74.50;;;;;;5068341;28;20008;-83
2023/08/16 01:36:08;;;;;;;;;;;15.80;74.60;;;;;;5051737;28;20392;-83
2023/08/16 01:38:34;;;;;;;;;;;15.70;74.60;;;;;;5069679;28;19920;-83
2023/08/16 01:41:02;;;;;;;;;;;15.80;74.70;;;;;;5088216;28;20420;-83
2023/08/16 01:43:29;;;;;;;;;;;15.80;74.70;;;;;;5068729;28;19962;-83
2023/08/16 01:45:55;;;;;;;;;;;15.80;74.60;;;;;;5068262;28;19912;-83
2023/08/16 01:48:21;;;;;;;;;;;15.70;74.60;;;;;;5067982;28;19935;-82
2023/08/16 01:50:47;;;;;;;;;;;15.70;74.60;;;;;;5051477;28;20014;-83
2023/08/16 01:53:12;;;;;;;;;;;15.70;74.60;;;;;;5069435;28;19959;-82
2023/08/16 01:55:38;;;;;;;;;;;15.60;74.50;;;;;;5067820;28;20276;-82
2023/08/16 01:58:04;;;;;;;;;;;15.60;74.50;;;;;;5067758;28;19917;-83
2023/08/16 02:00:29;;;;;;;;;;;15.60;74.50;;;;;;5067644;28;19912;-83
2023/08/16 02:02:55;;;;;;;;;;;15.50;74.50;;;;;;5051085;28;20357;-84
2023/08/16 02:05:20;;;;;;;;;;;15.50;74.60;;;;;;5068811;28;19955;-83
2023/08/16 02:07:46;;;;;;;;;;;15.30;74.50;;;;;;5067580;28;19929;-83
2023/08/16 02:10:11;;;;;;;;;;;15.30;74.80;;;;;;5067699;28;19917;-83
2023/08/16 02:12:37;;;;;;;;;;;15.20;74.70;;;;;;5050837;28;19912;-83
2023/08/16 02:15:02;;;;;;;;;;;15.10;74.90;;;;;;5067513;28;20007;-83
2023/08/16 02:17:28;;;;;;;;;;;15.10;74.80;;;;;;5050728;28;20315;-83
2023/08/16 02:19:54;;;;;;;;;;;15.10;74.80;;;;;;5050775;28;19960;-83
2023/08/16 02:22:19;;;;;;;;;;;15.00;74.90;;;;;;5067429;28;19912;-83
2023/08/16 02:24:45;;;;;;;;;;;15.10;74.90;;;;;;5067516;28;19913;-83
2023/08/16 02:27:11;;;;;;;;;;;15.00;74.80;;;;;;5067234;28;19978;-83
2023/08/16 02:29:36;;;;;;;;;;;15.10;74.80;;;;;;5068557;28;19921;-83
2023/08/16 02:32:02;;;;;;;;;;;15.10;74.70;;;;;;5050010;28;19916;-83
2023/08/16 02:34:27;;;;;;;;;;;15.20;74.60;;;;;;5066862;28;19912;-83
2023/08/16 02:36:53;;;;;;;;;;;15.10;74.50;;;;;;5067009;28;20415;-83
2023/08/16 02:39:18;;;;;;;;;;;15.20;74.50;;;;;;5068381;28;20283;-83
2023/08/16 02:41:44;;;;;;;;;;;15.10;74.50;;;;;;5050445;28;19939;-83
2023/08/16 02:44:09;;;;;;;;;;;15.10;74.50;;;;;;5050414;28;19956;-83
2023/08/16 02:46:35;;;;;;;;;;;15.10;74.70;;;;;;5050524;28;19913;-83
2023/08/16 02:49:01;;;;;;;;;;;15.00;74.60;;;;;;5066931;28;20011;-83
2023/08/16 02:51:26;;;;;;;;;;;15.00;74.60;;;;;;5068140;28;19962;-83
2023/08/16 02:53:52;;;;;;;;;;;14.90;74.80;;;;;;5068144;28;19912;-83
2023/08/16 02:56:17;;;;;;;;;;;14.90;74.80;;;;;;5066878;28;19932;-82
2023/08/16 02:58:43;;;;;;;;;;;14.90;74.80;;;;;;5066742;28;19913;-83
2023/08/16 03:01:08;;;;;;;;;;;14.90;74.70;;;;;;5066985;28;19913;-83
2023/08/16 03:03:34;;;;;;;;;;;14.90;74.70;;;;;;5068113;28;19937;-83
2023/08/16 03:06:00;;;;;;;;;;;14.90;74.70;;;;;;5049861;28;19935;-83
2023/08/16 03:08:25;;;;;;;;;;;15.00;74.90;;;;;;5050047;28;19917;-83
2023/08/16 03:10:51;;;;;;;;;;;15.00;74.90;;;;;;5050079;28;20369;-83
2023/08/16 03:13:16;;;;;;;;;;;15.00;74.80;;;;;;5067778;28;19939;-83
2023/08/16 03:15:42;;;;;;;;;;;15.00;74.80;;;;;;5086382;28;19904;-83
2023/08/16 03:18:08;;;;;;;;;;;15.00;74.80;;;;;;5051881;28;19920;-83
2023/08/16 03:20:33;;;;;;;;;;;14.90;74.80;;;;;;5066610;28;20015;-83
2023/08/16 03:22:59;;;;;;;;;;;14.90;75.00;;;;;;5067898;28;20372;-83
2023/08/16 03:25:24;;;;;;;;;;;15.00;75.00;;;;;;5066683;28;20020;-83
2023/08/16 03:27:50;;;;;;;;;;;15.00;74.90;;;;;;5049831;28;19924;-83
2023/08/16 03:30:15;;;;;;;;;;;15.00;74.80;;;;;;5067767;28;19916;-83
2023/08/16 03:32:41;;;;;;;;;;;14.90;74.80;;;;;;5066602;28;19918;-83
2023/08/16 03:35:07;;;;;;;;;;;14.80;74.90;;;;;;5049818;28;20364;-83
2023/08/16 03:37:32;;;;;;;;;;;14.90;74.80;;;;;;5049757;28;19994;-83
2023/08/16 03:39:59;;;;;;;;;;;14.80;74.60;;;;;;5049637;28;20368;-83
2023/08/16 03:42:24;;;;;;;;;;;14.80;74.40;;;;;;5050310;28;20426;-83
2023/08/16 03:44:50;;;;;;;;;;;14.70;74.30;;;;;;5052382;28;19975;-83
2023/08/16 03:47:15;;;;;;;;;;;14.70;74.50;;;;;;5053668;28;20292;-82
2023/08/16 03:49:42;;;;;;;;;;;14.70;74.50;;;;;;5053695;28;19995;-69
2023/08/16 03:52:08;;;;;;;;;;;14.70;74.60;;;;;;5071719;28;20383;-82
2023/08/16 03:54:33;;;;;;;;;;;14.80;74.60;;;;;;5070352;28;20001;-82
2023/08/16 03:56:59;;;;;;;;;;;14.80;74.60;;;;;;5053368;28;19916;-82
2023/08/16 03:59:24;;;;;;;;;;;14.90;74.60;;;;;;5053449;28;20283;-82
2023/08/16 04:01:50;;;;;;;;;;;15.00;74.60;;;;;;5053429;28;19966;-83
2023/08/16 04:04:16;;;;;;;;;;;15.10;74.60;;;;;;5069897;28;19916;-79
2023/08/16 04:06:41;;;;;;;;;;;15.20;74.60;;;;;;5053265;28;20422;-83
2023/08/16 04:09:08;;;;;;;;;;;15.30;74.60;;;;;;5053331;28;19962;-82
2023/08/16 04:11:34;;;;;;;;;;;15.40;74.60;;;;;;5069893;28;20420;-83
2023/08/16 04:13:59;;;;;;;;;;;15.40;74.70;;;;;;5053431;28;20000;-83
2023/08/16 04:16:25;;;;;;;;;;;15.50;74.80;;;;;;5053301;28;19942;-83
2023/08/16 04:18:53;;;;;;;;;;;15.50;74.80;;;;;;5069640;28;19916;-83
2023/08/16 04:21:19;;;;;;;;;;;15.60;74.80;;;;;;5069895;28;20429;-83
2023/08/16 04:23:44;;;;;;;;;;;15.70;74.90;;;;;;5069777;28;19950;-83
2023/08/16 04:26:10;;;;;;;;;;;15.70;74.80;;;;;;5069633;28;19916;-82
2023/08/16 04:28:35;;;;;;;;;;;15.80;74.90;;;;;;5070794;28;19995;-83
2023/08/16 04:31:01;;;;;;;;;;;15.80;74.80;;;;;;5069624;28;20288;-83
2023/08/16 04:33:27;;;;;;;;;;;15.80;74.80;;;;;;5052793;28;20347;-83
2023/08/16 04:35:52;;;;;;;;;;;15.90;74.80;;;;;;5070698;28;19979;-83
2023/08/16 04:38:18;;;;;;;;;;;15.90;74.80;;;;;;5052528;28;19931;-82
2023/08/16 04:40:43;;;;;;;;;;;15.90;74.80;;;;;;5070523;28;19912;-82
2023/08/16 04:43:09;;;;;;;;;;;15.70;74.80;;;;;;5052563;28;19965;-83
2023/08/16 04:45:35;;;;;;;;;;;15.70;75.10;;;;;;5052295;28;19952;-68
2023/08/16 04:48:00;;;;;;;;;;;15.70;75.10;;;;;;5070595;28;19912;-82
2023/08/16 04:50:26;;;;;;;;;;;15.70;75.00;;;;;;5086650;28;19931;-81
2023/08/16 04:52:52;;;;;;;;;;;15.70;75.00;;;;;;5055440;28;20277;-83
2023/08/16 04:55:17;;;;;;;;;;;15.70;75.10;;;;;;5069414;28;20244;-82
2023/08/16 04:57:43;;;;;;;;;;;15.70;75.10;;;;;;5068719;28;19923;-82
2023/08/16 05:00:09;;;;;;;;;;;15.80;75.10;;;;;;5052253;28;19940;-82
2023/08/16 05:02:34;;;;;;;;;;;15.80;75.00;;;;;;5052369;28;19926;-83
2023/08/16 05:05:00;;;;;;;;;;;15.80;75.10;;;;;;5068882;28;19924;-83
2023/08/16 05:07:26;;;;;;;;;;;15.90;75.10;;;;;;5069100;28;19920;-83
2023/08/16 05:09:51;;;;;;;;;;;15.90;75.00;;;;;;5052434;28;19913;-83
2023/08/16 05:12:17;;;;;;;;;;;15.90;75.00;;;;;;5068575;28;19957;-68
2023/08/16 05:14:42;;;;;;;;;;;15.90;75.00;;;;;;5069854;28;20342;-83
2023/08/16 05:17:08;;;;;;;;;;;15.90;74.90;;;;;;5068496;28;19960;-83
2023/08/16 05:19:34;;;;;;;;;;;16.00;74.90;;;;;;5068973;28;20369;-83
2023/08/16 05:22:00;;;;;;;;;;;16.00;74.80;;;;;;5051847;28;20016;-83
2023/08/16 05:24:25;;;;;;;;;;;16.00;74.80;;;;;;5068853;28;20280;-83
2023/08/16 05:26:51;;;;;;;;;;;15.90;74.90;;;;;;5069868;28;19915;-83
2023/08/16 05:29:16;;;;;;;;;;;15.90;75.00;;;;;;5052066;28;19916;-82
2023/08/16 05:31:43;;;;;;;;;;;15.80;75.20;;;;;;5051991;28;20335;-82
2023/08/16 05:34:09;;;;;;;;;;;15.80;75.30;;;;;;5068482;28;20316;-83
2023/08/16 05:36:44;;;;;;;;;;;15.90;75.20;;;;;;5068420;28;19970;-83
2023/08/16 05:39:09;;;;;;;;;;;15.90;75.10;;;;;;5068118;28;20334;-83
2023/08/16 05:41:35;;;;;;;;;;;16.00;75.00;;;;;;5051553;28;19939;-82
2023/08/16 05:44:00;;;;;;;;;;;16.00;75.00;;;;;;5051682;28;19935;-82
2023/08/16 05:46:26;;;;;;;;;;;15.90;75.00;;;;;;5068254;28;20075;-83
2023/08/16 05:48:51;;;;;;;;;;;15.90;75.20;;;;;;5051362;28;20161;-82
2023/08/16 05:51:17;;;;;;;;;;;15.80;75.30;;;;;;5068137;28;19933;-82
2023/08/16 05:53:42;;;;;;;;;;;15.80;75.40;;;;;;5052142;28;20018;-81
2023/08/16 05:56:08;;;;;;;;;;;15.90;75.60;;;;;;5069254;28;19913;-82
2023/08/16 05:58:34;;;;;;;;;;;15.90;75.50;;;;;;5051238;28;20315;-82
2023/08/16 06:00:59;;;;;;;;;;;16.00;75.40;;;;;;5067932;28;19912;-82
2023/08/16 06:03:25;;;;;;;;;;;15.90;75.40;;;;;;5067765;28;20222;-80
2023/08/16 06:05:50;;;;;;;;;;;15.90;75.50;;;;;;5069325;28;20450;-79
2023/08/16 06:08:16;;;;;;;;;;;16.00;75.70;;;;;;5067538;28;20277;-80
2023/08/16 06:10:41;;;;;;;;;;;16.10;75.60;;;;;;5069344;28;20373;-81
2023/08/16 06:13:07;;;;;;;;;;;16.20;75.50;;;;;;5051511;28;20266;-83
2023/08/16 06:15:32;;;;;;;;;;;16.30;75.40;;;;;;5067848;28;19908;-83
2023/08/16 06:17:58;;;;;;;;;;;16.40;75.30;;;;;;5069011;28;20065;-82
2023/08/16 06:20:23;;;;;;;;;;;16.30;75.30;;;;;;5067374;28;19929;-82
2023/08/16 06:22:49;;;;;;;;;;;16.30;75.40;;;;;;5067562;28;19958;-82
2023/08/16 06:25:14;;;;;;;;;;;16.30;75.50;;;;;;5083838;28;19917;-82
2023/08/16 06:27:40;;;;;;;;;;;16.40;75.50;;;;;;5055815;28;19930;-83
2023/08/16 06:30:07;;;;;;;;;;;16.50;75.40;;;;;;5050968;28;19966;-83
2023/08/16 06:32:32;;;;;;;;;;;16.60;75.30;;;;;;5050733;28;19958;-84
2023/08/16 06:34:58;;;;;;;;;;;16.70;75.40;;;;;;5050756;28;20331;-84
2023/08/16 06:37:24;;;;;;;;;;;16.80;75.40;;;;;;5067616;28;19958;-81
2023/08/16 06:39:49;;;;;;;;;;;16.80;75.40;;;;;;5068204;28;20296;-83
2023/08/16 06:42:15;;;;;;;;;;;16.90;75.40;;;;;;5050241;28;19921;-83
2023/08/16 06:44:40;;;;;;;;;;;17.00;75.40;;;;;;5068255;28;20292;-83
2023/08/16 06:47:06;;;;;;;;;;;17.10;75.30;;;;;;5068026;28;20373;-83
2023/08/16 06:49:31;;;;;;;;;;;17.20;75.30;;;;;;5067155;28;20269;-83
2023/08/16 06:51:58;;;;;;;;;;;17.20;75.30;;;;;;5050766;28;19913;-80
2023/08/16 06:54:23;;;;;;;;;;;17.20;75.40;;;;;;5050741;28;19963;-81
2023/08/16 06:56:49;;;;;;;;;;;17.20;75.40;;;;;;5050876;28;19967;-82
2023/08/16 06:59:15;;;;;;;;;;;17.30;75.50;;;;;;5050511;28;19916;-81
2023/08/16 07:01:41;;;;;;;;;;;17.30;75.40;;;;;;5066318;28;19909;-83
2023/08/16 07:04:06;;;;;;;;;;;17.40;75.40;;;;;;5066363;28;20502;-82
2023/08/16 07:06:32;;;;;;;;;;;17.40;75.50;;;;;;5066620;28;19916;-84
2023/08/16 07:08:58;;;;;;;;;;;17.40;75.60;;;;;;5049935;28;19987;-84
2023/08/16 07:11:24;;;;;;;;;;;17.50;75.60;;;;;;5066675;28;19927;-84
2023/08/16 07:13:50;;;;;;;;;;;17.70;75.50;;;;;;5067948;28;19913;-84
2023/08/16 07:16:16;;;;;;;;;;;17.70;75.40;;;;;;5066661;28;20399;-84
2023/08/16 07:18:42;;;;;;;;;;;17.90;75.40;;;;;;5065865;28;20395;-83
2023/08/16 07:21:07;;;;;;;;;;;17.90;75.20;;;;;;5066414;28;19955;-83
2023/08/16 07:23:33;;;;;;;;;;;17.80;75.30;;;;;;5049832;28;20426;-84
2023/08/16 07:25:59;;;;;;;;;;;17.90;75.50;;;;;;5066882;28;20033;-84
2023/08/16 07:28:25;;;;;;;;;;;18.00;75.50;;;;;;5067853;28;19919;-84
2023/08/16 07:30:53;;;;;;;;;;;18.10;75.40;;;;;;5066709;28;19932;-82
2023/08/16 07:33:19;;;;;;;;;;;18.20;75.30;;;;;;5067562;28;19924;-83
2023/08/16 07:35:45;;;;;;;;;;;18.20;75.30;;;;;;5067110;28;20335;-83
2023/08/16 07:38:11;;;;;;;;;;;18.30;75.40;;;;;;5067484;28;20279;-83
2023/08/16 07:40:37;;;;;;;;;;;18.30;75.50;;;;;;5050150;28;20340;-83
2023/08/16 07:43:03;;;;;;;;;;;18.40;75.60;;;;;;5066276;28;19948;-84
2023/08/16 07:45:28;;;;;;;;;;;18.40;75.70;;;;;;5066443;28;20384;-83
2023/08/16 07:47:54;;;;;;;;;;;18.50;75.80;;;;;;5068128;28;19920;-82
2023/08/16 07:50:19;;;;;;;;;;;18.60;75.70;;;;;;5066463;28;20007;-84
2023/08/16 07:52:45;;;;;;;;;;;18.70;75.60;;;;;;5049809;28;19919;-82
2023/08/16 07:55:11;;;;;;;;;;;18.60;75.60;;;;;;5049785;28;19916;-83
2023/08/16 07:57:36;;;;;;;;;;;18.60;75.70;;;;;;5066690;28;20015;-82
2023/08/16 08:00:04;;;;;;;;;;;18.60;75.90;;;;;;5049811;28;19912;-82
2023/08/16 08:02:31;;;;;;;;;;;18.70;76.10;;;;;;5060944;28;20000;-83
2023/08/16 08:05:01;;;;;;;;;;;18.90;76.20;;;;;;5050661;28;19935;-82
2023/08/16 08:07:28;;;;;;;;;;;19.10;76.10;;;;;;5068190;28;20300;-82
2023/08/16 08:09:55;;;;;;;;;;;19.20;76.00;;;;;;5067422;28;19916;-82
2023/08/16 08:12:21;;;;;;;;;;;19.30;76.00;;;;;;5065857;28;19909;-83
2023/08/16 08:14:46;;;;;;;;;;;19.50;75.90;;;;;;5065615;28;20003;-82
2023/08/16 08:17:12;;;;;;;;;;;19.50;75.50;;;;;;5067395;28;19917;-83
2023/08/16 08:19:37;;;;;;;;;;;19.50;75.70;;;;;;5065911;28;19913;-82
2023/08/16 08:22:03;;;;;;;;;;;19.60;75.90;;;;;;5066284;28;19997;-82
2023/08/16 08:24:28;;;;;;;;;;;19.70;76.10;;;;;;5048862;28;19913;-82
2023/08/16 08:26:56;;;;;;;;;;;19.80;76.10;;;;;;5067046;28;19912;-83
2023/08/16 08:29:25;;;;;;;;;;;20.00;76.00;;;;;;5065902;28;19936;-82
2023/08/16 08:31:53;;;;;;;;;;;20.10;76.00;;;;;;5068863;28;20371;-75
2023/08/16 08:34:19;;;;;;;;;;;20.20;75.90;;;;;;5069933;28;19920;-82
2023/08/16 08:36:45;;;;;;;;;;;20.20;75.90;;;;;;5070426;28;19991;-82
2023/08/16 08:39:10;;;;;;;;;;;20.20;76.10;;;;;;5052351;28;19924;-82
2023/08/16 08:41:37;;;;;;;;;;;20.20;76.20;;;;;;5052110;28;19924;-83
2023/08/16 08:44:03;;;;;;;;;;;20.20;76.00;;;;;;5069163;28;20161;-82
2023/08/16 08:46:30;;;;;;;;;;;20.10;76.30;;;;;;5052461;28;19916;-84
2023/08/16 08:48:58;;;;;;;;;;;20.20;76.40;;;;;;5068584;28;19996;-83
2023/08/16 08:51:26;;;;;;;;;;;20.30;76.40;;;;;;5068575;28;19977;-83
2023/08/16 08:53:52;;;;;;;;;;;20.60;76.30;;;;;;5068923;28;20011;-83
2023/08/16 08:56:18;;;;;;;;;;;20.70;76.20;;;;;;5051970;28;20073;-83
2023/08/16 08:58:45;;;;;;;;;;;20.90;76.10;;;;;;5069323;28;19936;-80
2023/08/16 09:01:11;;;;;;;;;;;20.90;76.10;;;;;;5072184;28;19916;-81
2023/08/16 09:03:38;;;;;;;;;;;20.90;76.00;;;;;;5070222;28;19920;-82
2023/08/16 09:06:04;;;;;;;;;;;20.90;76.10;;;;;;5070348;28;19921;-81
2023/08/16 09:08:30;;;;;;;;;;;21.00;76.30;;;;;;5070240;28;19909;-81
2023/08/16 09:10:57;;;;;;;;;;;21.00;76.20;;;;;;5071493;28;19981;-82
2023/08/16 09:13:23;;;;;;;;;;;21.10;76.30;;;;;;5070301;28;19958;-81
2023/08/16 09:15:48;;;;;;;;;;;21.20;76.20;;;;;;5070702;28;19908;-82
2023/08/16 09:18:16;;;;;;;;;;;21.30;76.00;;;;;;5070433;28;20012;-81
2023/08/16 09:20:45;;;;;;;;;;;21.40;76.00;;;;;;5070238;28;19954;-81
2023/08/16 09:23:14;;;;;;;;;;;21.50;76.00;;;;;;5073105;28;19916;-81
2023/08/16 09:25:41;;;;;;;;;;;21.50;75.90;;;;;;5077815;28;19912;-81
2023/08/16 09:28:10;;;;;;;;;;;21.70;75.90;;;;;;5090446;28;19916;-81
2023/08/16 09:30:36;;;;;;;;;;;21.80;75.90;;;;;;5091428;28;20288;-80
2023/08/16 09:33:02;;;;;;;;;;;21.80;76.10;;;;;;5087899;28;19917;-82
2023/08/16 09:35:32;;;;;;;;;;;22.00;76.20;;;;;;5070981;28;19915;-81
2023/08/16 09:37:58;;;;;;;;;;;22.00;76.30;;;;;;5072613;28;19912;-83
2023/08/16 09:40:24;;;;;;;;;;;22.20;76.30;;;;;;5095664;28;19904;-83
2023/08/16 09:42:49;;;;;;;;;;;22.40;76.10;;;;;;5075863;28;19915;-84
2023/08/16 09:45:15;;;;;;;;;;;22.50;76.20;;;;;;5070027;28;20007;-83
2023/08/16 09:47:41;;;;;;;;;;;22.70;76.10;;;;;;5053379;28;19960;-85
2023/08/16 09:50:08;;;;;;;;;;;22.70;75.90;;;;;;5053517;28;19935;-85
2023/08/16 09:52:35;;;;;;;;;;;22.60;76.20;;;;;;5069989;28;20049;-85
2023/08/16 09:55:01;;;;;;;;;;;22.70;76.40;;;;;;5086945;28;19912;-86
2023/08/16 09:57:27;;;;;;;;;;;22.80;76.30;;;;;;5069701;28;20011;-83
2023/08/16 09:59:53;;;;;;;;;;;22.80;76.20;;;;;;5086136;28;19919;-83
2023/08/16 10:02:18;;;;;;;;;;;22.80;76.00;;;;;;5069303;28;19909;-82
2023/08/16 10:04:44;;;;;;;;;;;22.60;76.30;;;;;;5070153;28;20550;-80
2023/08/16 10:07:10;;;;;;;;;;;22.60;76.60;;;;;;5070295;28;19915;-79
2023/08/16 10:09:36;;;;;;;;;;;22.70;76.60;;;;;;5070267;28;19913;-79
2023/08/16 10:12:02;;;;;;;;;;;22.70;76.60;;;;;;5070531;28;20090;-82
2023/08/16 10:14:28;;;;;;;;;;;22.60;76.80;;;;;;5069523;28;20291;-80
2023/08/16 10:16:56;;;;;;;;;;;22.80;77.00;;;;;;5086754;28;19916;-83
2023/08/16 10:19:23;;;;;;;;;;;23.00;77.10;;;;;;5070630;28;19915;-76
2023/08/16 10:21:48;;;;;;;;;;;23.10;77.00;;;;;;5070292;28;20284;-84
2023/08/16 10:24:15;;;;;;;;;;;23.30;77.00;;;;;;5069055;28;19909;-79
2023/08/16 10:26:46;;;;;;;;;;;23.50;77.30;;;;;;5070371;28;20392;-80
2023/08/16 10:29:13;;;;;;;;;;;23.80;77.10;;;;;;5071156;28;19913;-82
2023/08/16 10:31:41;;;;;;;;;;;24.10;76.80;;;;;;5070980;28;19912;-83
2023/08/16 10:34:08;;;;;;;;;;;24.30;77.00;;;;;;5070999;28;19919;-83
2023/08/16 10:36:33;;;;;;;;;;;24.60;77.20;;;;;;5071676;28;19914;-77
2023/08/16 10:39:00;;;;;;;;;;;25.20;77.50;;;;;;5069272;28;19939;-78
2023/08/16 10:41:25;;;;;;;;;;;25.70;77.40;;;;;;5070050;28;19962;-77
2023/08/16 10:43:54;;;;;;;;;;;26.10;77.00;;;;;;5070259;28;20372;-82
2023/08/16 10:46:30;;;;;;;;;;;26.40;76.90;;;;;;5052386;28;20353;-77
2023/08/16 10:49:00;;;;;;;;;;;26.70;77.10;;;;;;5069659;28;20392;-81
2023/08/16 10:51:26;;;;;;;;;;;27.00;77.00;;;;;;5087844;28;19908;-80
2023/08/16 10:53:54;;;;;;;;;;;27.10;76.90;;;;;;5087362;28;19919;-76
2023/08/16 10:56:20;;;;;;;;;;;26.90;76.60;;;;;;5093745;28;20416;-84
2023/08/16 10:58:49;;;;;;;;;;;26.70;76.90;;;;;;5091911;28;19916;-79
2023/08/16 11:01:16;;;;;;;;;;;26.60;77.00;;;;;;5087147;28;20025;-83
2023/08/16 11:03:43;;;;;;;;;;;26.40;77.20;;;;;;5082120;28;19912;-79
2023/08/16 11:06:12;;;;;;;;;;;26.50;77.40;;;;;;5090788;28;20418;-84
2023/08/16 11:08:39;;;;;;;;;;;26.70;77.40;;;;;;5093718;28;19909;-83
2023/08/16 11:11:05;;;;;;;;;;;26.90;77.40;;;;;;5073097;28;20257;-82
2023/08/16 11:13:30;;;;;;;;;;;27.00;76.70;;;;;;5075233;28;19912;-80
2023/08/16 11:15:56;;;;;;;;;;;26.70;76.20;;;;;;5069889;28;20305;-80
2023/08/16 11:18:26;;;;;;;;;;;26.30;76.30;;;;;;5067888;28;20022;-79
2023/08/16 11:20:51;;;;;;;;;;;25.90;76.40;;;;;;5069996;28;19993;-77
2023/08/16 11:23:17;;;;;;;;;;;25.70;76.90;;;;;;5077086;28;19940;-81
2023/08/16 11:25:43;;;;;;;;;;;25.50;76.60;;;;;;5069093;28;19957;-81
2023/08/16 11:28:09;;;;;;;;;;;25.20;76.90;;;;;;5067831;28;19917;-80
2023/08/16 11:30:35;;;;;;;;;;;25.00;76.90;;;;;;5068649;28;20423;-78
2023/08/16 11:33:01;;;;;;;;;;;24.70;76.80;;;;;;5067962;28;19913;-80
2023/08/16 11:35:27;;;;;;;;;;;24.50;77.30;;;;;;5070054;28;19920;-78
2023/08/16 11:37:52;;;;;;;;;;;24.30;77.40;;;;;;5068193;28;19920;-82
2023/08/16 11:40:24;;;;;;;;;;;24.20;77.60;;;;;;5069955;28;20364;-79
2023/08/16 11:42:50;;;;;;;;;;;24.20;77.50;;;;;;5067870;28;20398;-82
2023/08/16 11:45:16;;;;;;;;;;;24.10;77.50;;;;;;5067975;28;19920;-81
2023/08/16 11:47:42;;;;;;;;;;;24.10;77.40;;;;;;5067270;28;19908;-79
2023/08/16 11:50:08;;;;;;;;;;;24.30;77.60;;;;;;5067522;28;19916;-77
2023/08/16 11:52:34;;;;;;;;;;;24.70;77.80;;;;;;5067942;28;20272;-72
2023/08/16 11:55:00;;;;;;;;;;;25.10;77.90;;;;;;5068547;28;20015;-79
2023/08/16 11:57:26;;;;;;;;;;;25.30;77.10;;;;;;5067578;28;19924;-80
2023/08/16 11:59:57;;;;;;;;;;;25.80;78.30;;;;;;5067117;28;19913;-78
2023/08/16 12:02:24;;;;;;;;;;;26.40;77.90;;;;;;5068316;28;19913;-78
2023/08/16 12:04:50;;;;;;;;;;;27.00;77.80;;;;;;5069382;28;19999;-78
2023/08/16 12:07:16;;;;;;;;;;;27.50;77.80;;;;;;5072822;28;19916;-79
2023/08/16 12:09:42;;;;;;;;;;;28.20;78.10;;;;;;5072555;28;19971;-79
2023/08/16 12:12:08;;;;;;;;;;;28.30;77.40;;;;;;5072752;28;19908;-77
2023/08/16 12:14:33;;;;;;;;;;;28.00;77.00;;;;;;5071342;28;19920;-80
2023/08/16 12:16:59;;;;;;;;;;;27.60;77.00;;;;;;5073655;28;19916;-80
2023/08/16 12:19:25;;;;;;;;;;;27.20;77.50;;;;;;5082364;28;19959;-80
2023/08/16 12:21:52;;;;;;;;;;;27.00;77.60;;;;;;5092609;28;20426;-81
2023/08/16 12:24:17;;;;;;;;;;;26.80;77.40;;;;;;5092119;28;19912;-81
2023/08/16 12:26:43;;;;;;;;;;;26.50;77.60;;;;;;5083747;28;19923;-83
2023/08/16 12:29:09;;;;;;;;;;;26.20;77.50;;;;;;5071389;28;20317;-72
2023/08/16 12:31:34;;;;;;;;;;;25.90;77.60;;;;;;5066300;28;19918;-76
2023/08/16 12:34:00;;;;;;;;;;;25.80;77.50;;;;;;5090273;28;20267;-80
2023/08/16 12:36:26;;;;;;;;;;;25.50;77.30;;;;;;5074497;28;19916;-76
2023/08/16 12:38:51;;;;;;;;;;;25.30;77.50;;;;;;5085946;28;19920;-81
2023/08/16 12:41:17;;;;;;;;;;;25.20;77.80;;;;;;5073149;28;19931;-80
2023/08/16 12:43:42;;;;;;;;;;;25.20;77.90;;;;;;5072588;28;19913;-82
2023/08/16 12:46:08;;;;;;;;;;;25.30;77.60;;;;;;5070991;28;19920;-85
2023/08/16 12:48:36;;;;;;;;;;;25.50;77.60;;;;;;5070428;28;20434;-77
2023/08/16 12:51:02;;;;;;;;;;;26.10;78.80;;;;;;5070708;28;20072;-83
2023/08/16 12:53:30;;;;;;;;;;;26.90;78.90;;;;;;5088686;28;20376;-84
2023/08/16 12:55:59;;;;;;;;;;;27.10;77.60;;;;;;5072146;28;19920;-83
2023/08/16 12:58:24;;;;;;;;;;;26.70;76.80;;;;;;5070690;28;19922;-83
2023/08/16 13:00:50;;;;;;;;;;;26.20;77.00;;;;;;5071527;28;20411;-80
2023/08/16 13:03:16;;;;;;;;;;;25.90;77.40;;;;;;5071840;28;20383;-75
2023/08/16 13:05:42;;;;;;;;;;;25.90;77.90;;;;;;5074354;28;19935;-82
2023/08/16 13:08:07;;;;;;;;;;;26.10;78.40;;;;;;5074247;28;19915;-77
2023/08/16 13:10:33;;;;;;;;;;;26.30;78.50;;;;;;5070911;28;19912;-80
2023/08/16 13:12:59;;;;;;;;;;;26.70;78.80;;;;;;5070848;28;19916;-79
2023/08/16 13:15:24;;;;;;;;;;;27.00;79.10;;;;;;5071780;28;19970;-80
2023/08/16 13:17:51;;;;;;;;;;;27.40;79.40;;;;;;5068290;28;19917;-80
2023/08/16 13:20:17;;;;;;;;;;;27.70;79.50;;;;;;5070494;28;20008;-81
2023/08/16 13:22:43;;;;;;;;;;;27.80;78.90;;;;;;5071638;28;19940;-81
2023/08/16 13:25:09;;;;;;;;;;;27.60;78.60;;;;;;5072723;28;20320;-86
2023/08/16 13:27:34;;;;;;;;;;;27.20;78.70;;;;;;5070720;28;19962;-82
2023/08/16 13:30:00;;;;;;;;;;;26.70;78.30;;;;;;5071473;28;19931;-82
2023/08/16 13:32:25;;;;;;;;;;;26.10;78.30;;;;;;5071763;28;19960;-83
2023/08/16 13:34:51;;;;;;;;;;;25.70;78.40;;;;;;5087503;28;19919;-82
2023/08/16 13:37:17;;;;;;;;;;;25.40;78.70;;;;;;5086150;28;19999;-82
2023/08/16 13:39:42;;;;;;;;;;;25.30;78.60;;;;;;5089688;28;19989;-72
2023/08/16 13:42:08;;;;;;;;;;;25.20;78.80;;;;;;5090486;28;19912;-81
2023/08/16 13:44:34;;;;;;;;;;;25.20;78.50;;;;;;5090565;28;19939;-80
2023/08/16 13:47:00;;;;;;;;;;;25.10;78.10;;;;;;5091585;28;20372;-84
2023/08/16 13:49:25;;;;;;;;;;;25.10;77.90;;;;;;5070021;28;20001;-84
2023/08/16 13:51:51;;;;;;;;;;;25.10;77.60;;;;;;5069960;28;19912;-82
2023/08/16 13:54:16;;;;;;;;;;;25.00;77.20;;;;;;5073226;28;19912;-82
2023/08/16 13:56:42;;;;;;;;;;;24.70;77.50;;;;;;5074094;28;20368;-75
2023/08/16 13:59:08;;;;;;;;;;;24.40;77.50;;;;;;5072241;28;19971;-80
2023/08/16 14:01:34;;;;;;;;;;;24.20;77.90;;;;;;5089536;28;19912;-77
2023/08/16 14:03:59;;;;;;;;;;;24.20;78.00;;;;;;5090791;28;19912;-76
2023/08/16 14:06:25;;;;;;;;;;;24.20;77.90;;;;;;5089801;28;19916;-76
2023/08/16 14:08:51;;;;;;;;;;;24.30;77.80;;;;;;5091499;28;19916;-78